createdAt,value
2023-05-20T00:02:10.990Z,1.58
2023-05-20T00:04:40.918Z,1.00
2023-05-20T00:07:07.993Z,1.35
2023-05-20T00:09:34.709Z,1.00
2023-05-20T00:12:01.475Z,1.00
2023-05-20T00:14:28.240Z,1.13
2023-05-20T00:16:55.285Z,1.45
2023-05-20T00:19:22.244Z,1.73
2023-05-20T00:21:50.504Z,1.35
2023-05-20T00:24:17.780Z,1.90
2023-05-20T00:26:44.624Z,1.33
2023-05-20T00:29:11.373Z,1.58
2023-05-20T00:31:38.136Z,1.20
2023-05-20T00:34:04.787Z,1.20
2023-05-20T00:36:31.675Z,1.45
2023-05-20T00:38:59.756Z,1.48
2023-05-20T00:41:26.765Z,1.73
2023-05-20T00:43:54.643Z,1.38
2023-05-20T00:46:21.570Z,1.60
2023-05-20T00:48:48.564Z,1.88
2023-05-20T00:51:15.377Z,1.48
2023-05-20T00:53:42.353Z,1.20
2023-05-20T00:56:10.600Z,1.58
2023-05-20T00:58:38.017Z,1.30
2023-05-20T01:01:05.340Z,1.30
2023-05-20T01:03:32.814Z,1.38
2023-05-20T01:06:00.056Z,1.08
2023-05-20T01:08:28.572Z,1.42
2023-05-20T01:11:03.833Z,1.38
2023-05-20T01:13:36.963Z,1.60
2023-05-20T01:16:04.573Z,1.90
2023-05-20T01:18:33.208Z,1.20
2023-05-20T01:21:02.492Z,1.48
2023-05-20T01:23:38.359Z,1.17
2023-05-20T01:26:06.385Z,1.20
2023-05-20T01:28:33.511Z,1.50
2023-05-20T01:31:02.866Z,1.55
2023-05-20T01:33:31.142Z,1.40
2023-05-20T01:35:58.799Z,1.33
2023-05-20T01:38:26.953Z,2.10
2023-05-20T01:40:57.364Z,1.42
2023-05-20T01:43:25.928Z,1.65
2023-05-20T01:45:52.590Z,1.67
2023-05-20T01:48:19.329Z,1.45
2023-05-20T01:50:46.037Z,1.80
2023-05-20T01:53:13.354Z,1.42
2023-05-20T01:55:40.274Z,1.23
2023-05-20T01:58:08.362Z,1.40
2023-05-20T02:00:36.201Z,2.00
2023-05-20T02:03:03.698Z,2.00
2023-05-20T02:05:31.826Z,1.50
2023-05-20T02:07:58.628Z,1.38
2023-05-20T02:10:25.305Z,1.60
2023-05-20T02:12:51.994Z,1.50
2023-05-20T02:15:20.189Z,1.50
2023-05-20T02:17:47.084Z,1.45
2023-05-20T02:20:14.073Z,1.27
2023-05-20T02:22:42.297Z,1.30
2023-05-20T02:25:10.488Z,1.27
2023-05-20T02:27:37.270Z,1.40
2023-05-20T02:30:04.579Z,1.33
2023-05-20T02:32:33.712Z,1.55
2023-05-20T02:35:00.648Z,1.10
2023-05-20T02:37:28.865Z,1.10
2023-05-20T02:39:56.376Z,1.40
2023-05-20T02:42:23.389Z,1.50
2023-05-20T02:44:50.149Z,2.00
2023-05-20T02:47:18.404Z,1.75
2023-05-20T02:49:46.761Z,1.45
2023-05-20T02:52:13.563Z,1.35
2023-05-20T02:54:40.698Z,1.40
2023-05-20T02:57:07.584Z,1.15
2023-05-20T02:59:34.385Z,1.63
2023-05-20T03:02:01.152Z,1.45
2023-05-20T03:04:29.104Z,1.85
2023-05-20T03:06:57.772Z,1.30
2023-05-20T03:09:25.217Z,1.58
2023-05-20T03:11:51.891Z,1.80
2023-05-20T03:14:18.726Z,1.20
2023-05-20T03:16:45.638Z,2.08
2023-05-20T03:19:12.532Z,1.95
2023-05-20T03:21:39.296Z,1.63
2023-05-20T03:24:07.444Z,1.40
2023-05-20T03:26:37.580Z,2.00
2023-05-20T03:29:05.653Z,1.15
2023-05-20T03:31:32.359Z,1.52
2023-05-20T03:33:59.188Z,1.50
2023-05-20T03:36:25.950Z,1.40
2023-05-20T03:38:52.731Z,1.20
2023-05-20T03:41:21.226Z,1.63
2023-05-20T03:43:47.923Z,1.58
2023-05-20T03:46:14.581Z,1.80
2023-05-20T03:48:41.239Z,2.08
2023-05-20T03:51:08.406Z,1.80
2023-05-20T03:53:35.142Z,1.27
2023-05-20T03:56:02.097Z,1.88
2023-05-20T03:58:31.241Z,1.08
2023-05-20T04:00:58.470Z,1.08
2023-05-20T04:03:26.083Z,1.50
2023-05-20T04:05:52.907Z,1.48
2023-05-20T04:08:19.669Z,1.85
2023-05-20T04:10:46.568Z,2.03
2023-05-20T04:13:13.444Z,1.58
2023-05-20T04:15:41.967Z,1.38
2023-05-20T04:18:08.798Z,1.67
2023-05-20T04:20:36.048Z,1.42
2023-05-20T04:23:02.816Z,1.10
2023-05-20T04:25:29.538Z,1.40
2023-05-20T04:27:57.578Z,1.77
2023-05-20T04:30:24.562Z,1.10
2023-05-20T04:32:53.994Z,1.30
2023-05-20T04:35:20.821Z,1.38
2023-05-20T04:37:53.127Z,1.60
2023-05-20T04:40:20.978Z,1.10
2023-05-20T04:42:47.717Z,1.40
2023-05-20T04:45:14.642Z,1.55
2023-05-20T04:47:42.009Z,1.80
2023-05-20T04:50:11.376Z,1.08
2023-05-20T04:52:39.143Z,1.30
2023-05-20T04:55:09.750Z,2.08
2023-05-20T04:57:38.734Z,1.30
2023-05-20T05:00:07.911Z,1.40
2023-05-20T05:02:35.155Z,1.10
2023-05-20T05:05:02.036Z,1.20
2023-05-20T05:07:30.299Z,1.48
2023-05-20T05:09:57.212Z,1.15
2023-05-20T05:12:23.948Z,1.65
2023-05-20T05:14:51.024Z,1.20
2023-05-20T05:17:17.751Z,1.40
2023-05-20T05:19:44.502Z,1.77
2023-05-20T05:22:11.173Z,1.30
2023-05-20T05:24:39.266Z,1.10
2023-05-20T05:27:06.221Z,1.65
2023-05-20T05:29:33.138Z,0.88
2023-05-20T05:31:59.921Z,0.88
2023-05-20T05:34:26.687Z,1.40
2023-05-20T05:36:53.320Z,1.45
2023-05-20T05:39:20.055Z,0.80
2023-05-20T05:41:48.055Z,1.08
2023-05-20T05:44:15.512Z,1.60
2023-05-20T05:46:42.306Z,0.93
2023-05-20T05:49:09.086Z,1.30
2023-05-20T05:51:37.582Z,1.35
2023-05-20T05:54:06.002Z,1.05
2023-05-20T05:56:34.207Z,1.10
2023-05-20T05:59:02.517Z,1.15
2023-05-20T06:01:29.243Z,1.48
2023-05-20T06:03:56.247Z,0.93
2023-05-20T06:06:22.982Z,1.65
2023-05-20T06:08:49.798Z,1.10
2023-05-20T06:11:16.716Z,1.00
2023-05-20T06:13:43.485Z,1.13
2023-05-20T06:16:11.705Z,1.00
2023-05-20T06:18:38.648Z,0.98
2023-05-20T06:21:05.662Z,1.08
2023-05-20T06:23:32.488Z,1.08
2023-05-20T06:25:59.736Z,1.20
2023-05-20T06:28:28.969Z,1.30
2023-05-20T06:30:56.270Z,2.08
2023-05-20T06:33:26.194Z,1.42
2023-05-20T06:35:53.054Z,1.38
2023-05-20T06:38:20.153Z,1.17
2023-05-20T06:40:48.353Z,1.10
2023-05-20T06:43:15.474Z,1.23
2023-05-20T06:45:44.774Z,1.00
2023-05-20T06:48:11.621Z,1.02
2023-05-20T06:50:39.931Z,1.30
2023-05-20T06:53:06.679Z,1.40
2023-05-20T06:55:33.673Z,0.85
2023-05-20T06:58:00.474Z,1.40
2023-05-20T07:00:27.179Z,0.93
2023-05-20T07:02:53.882Z,0.80
2023-05-20T07:05:20.920Z,0.93
2023-05-20T07:07:48.997Z,1.10
2023-05-20T07:10:15.793Z,1.00
2023-05-20T07:12:42.539Z,1.45
2023-05-20T07:15:10.469Z,0.93
2023-05-20T07:17:37.301Z,1.30
2023-05-20T07:20:04.795Z,0.90
2023-05-20T07:22:31.699Z,1.15
2023-05-20T07:25:01.274Z,1.30
2023-05-20T07:27:28.531Z,1.00
2023-05-20T07:29:55.508Z,1.20
2023-05-20T07:32:22.474Z,1.02
2023-05-20T07:34:49.370Z,1.20
2023-05-20T07:37:16.653Z,0.93
2023-05-20T07:39:43.313Z,1.42
2023-05-20T07:42:11.464Z,1.30
2023-05-20T07:44:38.848Z,1.20
2023-05-20T07:47:06.138Z,1.27
2023-05-20T07:49:35.318Z,1.08
2023-05-20T07:52:03.189Z,1.20
2023-05-20T07:54:30.241Z,1.30
2023-05-20T07:56:57.024Z,1.13
2023-05-20T07:59:25.150Z,1.50
2023-05-20T08:01:52.162Z,1.48
2023-05-20T08:04:18.987Z,1.45
2023-05-20T08:06:46.772Z,1.63
2023-05-20T08:09:13.492Z,1.17
2023-05-20T08:11:40.262Z,1.25
2023-05-20T08:14:07.074Z,1.33
2023-05-20T08:16:36.441Z,1.73
2023-05-20T08:19:03.610Z,1.20
2023-05-20T08:21:30.379Z,1.25
2023-05-20T08:24:00.166Z,1.70
2023-05-20T08:26:27.505Z,1.55
2023-05-20T08:28:54.801Z,1.17
2023-05-20T08:31:21.500Z,1.85
2023-05-20T08:33:49.631Z,1.65
2023-05-20T08:36:16.594Z,1.65
2023-05-20T08:38:43.630Z,1.48
2023-05-20T08:41:10.681Z,1.45
2023-05-20T08:43:37.861Z,1.00
2023-05-20T08:46:06.952Z,1.60
2023-05-20T08:48:33.880Z,1.15
2023-05-20T08:51:03.581Z,1.00
2023-05-20T08:53:30.871Z,0.90
2023-05-20T08:56:02.731Z,1.25
2023-05-20T08:58:29.974Z,1.00
2023-05-20T09:00:56.791Z,1.25
2023-05-20T09:03:24.428Z,1.05
2023-05-20T09:05:51.428Z,1.55
2023-05-20T09:08:24.183Z,1.08
2023-05-20T09:10:52.553Z,1.10
2023-05-20T09:13:19.979Z,0.93
2023-05-20T09:15:48.075Z,1.30
2023-05-20T09:18:17.156Z,0.80
2023-05-20T09:20:47.458Z,0.85
2023-05-20T09:23:14.230Z,1.10
2023-05-20T09:25:45.114Z,0.93
2023-05-20T09:28:13.027Z,1.45
2023-05-20T09:30:39.982Z,0.90
2023-05-20T09:33:09.767Z,0.98
2023-05-20T09:35:39.839Z,0.82
2023-05-20T09:38:10.059Z,1.10
2023-05-20T09:40:38.925Z,0.70
2023-05-20T09:43:08.309Z,1.25
2023-05-20T09:45:36.050Z,0.85
2023-05-20T09:48:04.249Z,1.20
2023-05-20T09:50:32.169Z,0.95
2023-05-20T09:53:03.295Z,1.08
2023-05-20T09:55:31.021Z,0.80
2023-05-20T09:58:01.971Z,1.08
2023-05-20T10:00:30.797Z,1.10
2023-05-20T10:02:58.244Z,1.10
2023-05-20T10:05:30.183Z,0.75
2023-05-20T10:08:26.990Z,1.52
2023-05-20T10:11:03.574Z,1.00
2023-05-20T10:14:11.113Z,1.08
2023-05-20T10:16:48.116Z,0.85
2023-05-20T10:19:27.685Z,1.10
2023-05-20T10:22:00.249Z,1.05
2023-05-20T10:24:32.769Z,0.70
2023-05-20T10:27:02.860Z,0.77
2023-05-20T10:29:43.257Z,0.80
2023-05-20T10:32:11.886Z,0.90
2023-05-20T10:34:48.016Z,0.90
2023-05-20T10:37:26.338Z,0.80
2023-05-20T10:39:53.172Z,0.80
2023-05-20T10:42:30.383Z,1.00
2023-05-20T10:47:26.647Z,0.98
2023-05-20T10:49:53.625Z,0.77
2023-05-20T10:52:20.749Z,0.80
2023-05-20T10:54:56.512Z,0.85
2023-05-20T10:57:24.376Z,0.93
2023-05-20T10:59:53.348Z,1.08
2023-05-20T11:02:26.629Z,1.00
2023-05-20T11:04:58.548Z,0.93
2023-05-20T11:07:27.788Z,1.17
2023-05-20T11:09:56.294Z,1.33
2023-05-20T11:12:24.273Z,0.80
2023-05-20T11:14:51.556Z,0.93
2023-05-20T11:17:19.818Z,1.10
2023-05-20T11:19:47.388Z,0.70
2023-05-20T11:22:15.690Z,0.70
2023-05-20T11:24:43.614Z,0.82
2023-05-20T11:27:10.407Z,0.85
2023-05-20T11:29:38.001Z,0.80
2023-05-20T11:32:05.481Z,0.60
2023-05-20T11:34:36.495Z,1.02
2023-05-20T11:37:07.801Z,0.90
2023-05-20T11:42:06.254Z,0.75
2023-05-20T11:44:33.254Z,0.80
2023-05-20T11:47:01.464Z,1.10
2023-05-20T11:49:29.259Z,0.88
2023-05-20T11:51:57.162Z,0.88
2023-05-20T11:54:24.880Z,0.80
2023-05-20T11:56:54.521Z,0.70
2023-05-20T11:59:24.739Z,0.93
2023-05-20T12:01:51.714Z,0.60
2023-05-20T12:04:19.024Z,0.90
2023-05-20T12:06:46.969Z,0.82
2023-05-20T12:09:14.351Z,0.70
2023-05-20T12:11:41.703Z,0.85
2023-05-20T12:14:10.626Z,0.63
2023-05-20T12:16:38.253Z,0.75
2023-05-20T12:19:05.627Z,1.02
2023-05-20T12:21:32.503Z,0.50
2023-05-20T12:23:59.821Z,0.70
2023-05-20T12:26:27.935Z,0.80
2023-05-20T12:28:55.323Z,0.63
2023-05-20T12:31:23.662Z,1.00
2023-05-20T12:33:53.283Z,0.73
2023-05-20T12:36:20.278Z,0.60
2023-05-20T12:38:47.462Z,0.35
2023-05-20T12:41:14.190Z,0.80
2023-05-20T12:43:43.425Z,0.60
2023-05-20T12:46:10.170Z,0.68
2023-05-20T12:48:39.947Z,0.80
2023-05-20T12:51:08.005Z,0.70
2023-05-20T12:53:34.804Z,0.47
2023-05-20T12:56:01.504Z,0.77
2023-05-20T12:58:28.602Z,0.80
2023-05-20T13:00:55.503Z,0.50
2023-05-20T13:03:23.055Z,0.60
2023-05-20T13:05:51.548Z,0.70
2023-05-20T13:08:18.259Z,0.43
2023-05-20T13:10:46.292Z,0.82
2023-05-20T13:13:14.254Z,0.60
2023-05-20T13:15:41.448Z,0.98
2023-05-20T13:18:10.548Z,0.50
2023-05-20T13:20:37.758Z,0.70
2023-05-20T13:23:06.806Z,0.93
2023-05-20T13:25:33.789Z,0.80
2023-05-20T13:28:00.530Z,0.95
2023-05-20T13:30:28.652Z,1.00
2023-05-20T13:32:55.639Z,1.10
2023-05-20T13:35:22.411Z,0.73
2023-05-20T13:37:49.339Z,0.80
2023-05-20T13:40:17.556Z,1.00
2023-05-20T13:42:44.316Z,0.85
2023-05-20T13:45:11.764Z,1.05
2023-05-20T13:47:38.472Z,0.80
2023-05-20T13:50:06.742Z,0.90
2023-05-20T13:52:33.483Z,0.50
2023-05-20T13:55:00.399Z,1.00
2023-05-20T13:57:28.546Z,0.73
2023-05-20T13:59:55.263Z,1.00
2023-05-20T14:02:22.072Z,0.80
2023-05-20T14:04:49.029Z,0.60
2023-05-20T14:07:15.812Z,0.60
2023-05-20T14:09:42.662Z,0.50
2023-05-20T14:12:09.380Z,0.70
2023-05-20T14:14:37.501Z,0.90
2023-05-20T14:17:04.643Z,0.90
2023-05-20T14:19:31.642Z,1.02
2023-05-20T14:22:01.436Z,0.75
2023-05-20T14:24:28.276Z,0.70
2023-05-20T14:26:55.269Z,0.50
2023-05-20T14:29:22.005Z,0.98
2023-05-20T14:31:50.692Z,0.80
2023-05-20T14:34:17.565Z,0.90
2023-05-20T14:36:44.395Z,0.70
2023-05-20T14:39:11.394Z,0.85
2023-05-20T14:41:38.181Z,0.80
2023-05-20T14:44:05.336Z,0.70
2023-05-20T14:46:32.582Z,0.70
2023-05-20T14:49:00.879Z,0.60
2023-05-20T14:51:27.961Z,0.68
2023-05-20T14:53:54.651Z,0.95
2023-05-20T14:56:21.749Z,0.90
2023-05-20T14:58:48.567Z,0.90
2023-05-20T15:01:15.393Z,0.70
2023-05-20T15:03:42.460Z,0.70
2023-05-20T15:06:10.560Z,0.73
2023-05-20T15:08:37.569Z,0.77
2023-05-20T15:11:04.827Z,0.63
2023-05-20T15:13:31.777Z,0.75
2023-05-20T15:15:58.645Z,0.70
2023-05-20T15:18:25.394Z,0.57
2023-05-20T15:20:53.220Z,0.70
2023-05-20T15:23:21.540Z,0.90
2023-05-20T15:25:50.271Z,0.40
2023-05-20T15:28:19.653Z,0.70
2023-05-20T15:30:47.094Z,0.50
2023-05-20T15:33:13.993Z,0.50
2023-05-20T15:35:40.774Z,0.90
2023-05-20T15:38:07.492Z,0.77
2023-05-20T15:40:35.773Z,0.80
2023-05-20T15:43:02.702Z,0.60
2023-05-20T15:45:30.971Z,0.82
2023-05-20T15:47:57.827Z,0.65
2023-05-20T15:50:24.606Z,0.82
2023-05-20T15:52:52.241Z,0.60
2023-05-20T15:55:19.628Z,1.13
2023-05-20T15:57:47.685Z,0.98
2023-05-20T16:00:18.251Z,0.70
2023-05-20T16:02:46.658Z,0.80
2023-05-20T16:05:13.648Z,0.90
2023-05-20T16:07:41.621Z,0.60
2023-05-20T16:10:09.697Z,0.98
2023-05-20T16:12:36.649Z,0.68
2023-05-20T16:15:05.632Z,0.77
2023-05-20T16:17:32.367Z,0.88
2023-05-20T16:19:59.261Z,0.90
2023-05-20T16:22:26.088Z,0.70
2023-05-20T16:24:54.422Z,0.75
2023-05-20T16:27:21.204Z,0.77
2023-05-20T16:29:48.005Z,0.80
2023-05-20T16:32:16.546Z,0.85
2023-05-20T16:34:43.367Z,0.70
2023-05-20T16:37:10.630Z,0.70
2023-05-20T16:39:37.385Z,0.63
2023-05-20T16:42:04.447Z,0.63
2023-05-20T16:44:31.724Z,0.70
2023-05-20T16:46:58.404Z,0.60
2023-05-20T16:49:28.590Z,0.63
2023-05-20T16:51:55.478Z,0.80
2023-05-20T16:54:22.348Z,0.60
2023-05-20T16:56:49.755Z,0.77
2023-05-20T16:59:16.991Z,0.70
2023-05-20T17:01:43.910Z,0.68
2023-05-20T17:04:10.829Z,0.80
2023-05-20T17:06:39.918Z,0.65
2023-05-20T17:09:07.271Z,0.75
2023-05-20T17:11:35.197Z,0.65
2023-05-20T17:14:02.013Z,0.65
2023-05-20T17:16:29.296Z,0.80
2023-05-20T17:18:56.337Z,0.57
2023-05-20T17:21:23.199Z,0.70
2023-05-20T17:23:51.391Z,0.50
2023-05-20T17:26:20.522Z,0.63
2023-05-20T17:28:47.298Z,0.60
2023-05-20T17:31:14.056Z,0.70
2023-05-20T17:33:40.875Z,0.60
2023-05-20T17:36:07.989Z,0.52
2023-05-20T17:38:34.753Z,0.60
2023-05-20T17:41:03.316Z,0.80
2023-05-20T17:43:30.000Z,0.70
2023-05-20T17:45:56.745Z,0.80
2023-05-20T17:48:23.549Z,0.70
2023-05-20T17:50:50.350Z,0.80
2023-05-20T17:53:19.168Z,0.60
2023-05-20T17:55:47.682Z,0.80
2023-05-20T17:58:16.913Z,0.70
2023-05-20T18:00:43.628Z,1.02
2023-05-20T18:03:13.774Z,0.88
2023-05-20T18:05:40.894Z,0.63
2023-05-20T18:08:07.762Z,0.60
2023-05-20T18:10:34.937Z,0.70
2023-05-20T18:13:02.428Z,0.80
2023-05-20T18:15:30.510Z,0.70
2023-05-20T18:17:57.328Z,0.60
2023-05-20T18:20:24.411Z,0.90
2023-05-20T18:22:58.122Z,0.85
2023-05-20T18:25:25.310Z,0.68
2023-05-20T18:27:52.512Z,0.45
2023-05-20T18:30:19.626Z,0.57
2023-05-20T18:32:47.877Z,0.60
2023-05-20T18:35:14.713Z,0.50
2023-05-20T18:37:41.649Z,0.57
2023-05-20T18:40:09.529Z,0.88
2023-05-20T18:42:36.420Z,0.60
2023-05-20T18:45:03.193Z,0.95
2023-05-20T18:47:29.975Z,0.95
2023-05-20T18:49:57.993Z,0.77
2023-05-20T18:52:24.679Z,0.95
2023-05-20T18:54:51.413Z,0.63
2023-05-20T18:57:18.219Z,0.75
2023-05-20T18:59:44.957Z,0.80
2023-05-20T19:02:11.678Z,0.82
2023-05-20T19:04:38.648Z,0.52
2023-05-20T19:07:07.015Z,0.98
2023-05-20T19:09:33.758Z,0.90
2023-05-20T19:12:00.591Z,0.80
2023-05-20T19:14:27.295Z,0.80
2023-05-20T19:16:54.313Z,0.95
2023-05-20T19:19:21.963Z,0.90
2023-05-20T19:21:49.206Z,0.80
2023-05-20T19:24:22.172Z,0.77
2023-05-20T19:26:48.916Z,0.70
2023-05-20T19:29:15.955Z,1.10
2023-05-20T19:31:43.279Z,0.60
2023-05-20T19:34:10.262Z,0.70
2023-05-20T19:36:38.363Z,0.75
2023-05-20T19:39:05.392Z,0.60
2023-05-20T19:41:33.467Z,1.00
2023-05-20T19:44:01.205Z,0.90
2023-05-20T19:46:28.208Z,0.65
2023-05-20T19:48:55.169Z,0.88
2023-05-20T19:51:22.254Z,0.82
2023-05-20T19:53:50.704Z,0.85
2023-05-20T19:56:19.896Z,0.75
2023-05-20T19:58:48.397Z,0.90
2023-05-20T20:01:15.175Z,0.77
2023-05-20T20:03:42.685Z,0.57
2023-05-20T20:06:10.282Z,0.60
2023-05-20T20:08:40.319Z,0.52
2023-05-20T20:11:08.031Z,0.65
2023-05-20T20:13:35.000Z,0.60
2023-05-20T20:16:03.331Z,1.17
2023-05-20T20:18:30.139Z,0.75
2023-05-20T20:20:59.648Z,0.65
2023-05-20T20:23:26.528Z,0.80
2023-05-20T20:25:53.294Z,0.93
2023-05-20T20:28:20.017Z,0.57
2023-05-20T20:30:46.664Z,0.80
2023-05-20T20:33:15.037Z,0.60
2023-05-20T20:35:42.875Z,0.80
2023-05-20T20:38:11.055Z,0.70
2023-05-20T20:40:42.490Z,0.93
2023-05-20T20:43:11.087Z,0.85
2023-05-20T20:45:38.004Z,0.77
2023-05-20T20:48:07.945Z,0.80
2023-05-20T20:50:36.726Z,1.10
2023-05-20T20:53:03.482Z,0.70
2023-05-20T20:55:30.654Z,0.95
2023-05-20T20:57:58.597Z,0.80
2023-05-20T21:00:27.013Z,0.85
2023-05-20T21:02:53.779Z,0.77
2023-05-20T21:05:21.476Z,0.70
2023-05-20T21:07:58.079Z,0.70
2023-05-20T21:10:29.093Z,0.90
2023-05-20T21:12:56.228Z,0.80
2023-05-20T21:15:23.427Z,0.82
2023-05-20T21:17:50.866Z,0.80
2023-05-20T21:20:21.298Z,0.70
2023-05-20T21:22:49.855Z,1.10
2023-05-20T21:25:16.854Z,1.10
2023-05-20T21:27:43.603Z,0.60
2023-05-20T21:30:11.318Z,0.70
2023-05-20T21:32:38.458Z,0.70
2023-05-20T21:35:06.061Z,0.60
2023-05-20T21:37:32.738Z,0.75
2023-05-20T21:40:00.819Z,1.08
2023-05-20T21:42:27.573Z,0.73
2023-05-20T21:44:54.322Z,0.80
2023-05-20T21:47:21.310Z,0.60
2023-05-20T21:49:48.252Z,0.85
2023-05-20T21:52:15.375Z,0.73
2023-05-20T21:54:42.124Z,0.70
2023-05-20T21:57:10.401Z,1.17
2023-05-20T21:59:38.165Z,0.80
2023-05-20T22:02:05.196Z,0.90
2023-05-20T22:04:35.473Z,1.00
2023-05-20T22:07:02.218Z,0.80
2023-05-20T22:09:29.048Z,0.93
2023-05-20T22:11:56.229Z,1.20
2023-05-20T22:14:24.206Z,1.00
2023-05-20T22:16:51.052Z,1.35
2023-05-20T22:19:17.852Z,1.20
2023-05-20T22:21:50.661Z,1.15
2023-05-20T22:24:18.146Z,1.00
2023-05-20T22:26:44.979Z,0.80
2023-05-20T22:29:11.684Z,0.88
2023-05-20T22:31:40.010Z,1.40
2023-05-20T22:34:06.750Z,1.00
2023-05-20T22:36:34.203Z,1.10
2023-05-20T22:39:02.206Z,1.38
2023-05-20T22:41:29.157Z,0.90
2023-05-20T22:43:56.843Z,1.35
2023-05-20T22:46:23.799Z,0.95
2023-05-20T22:48:55.661Z,1.02
2023-05-20T22:51:22.677Z,0.98
2023-05-20T22:53:49.490Z,1.48
2023-05-20T22:56:16.547Z,1.20
2023-05-20T22:58:43.729Z,1.08
2023-05-20T23:01:10.576Z,1.50
2023-05-20T23:03:38.033Z,1.60
2023-05-20T23:06:06.534Z,1.20
2023-05-20T23:08:33.351Z,1.00
2023-05-20T23:11:00.040Z,1.55
2023-05-20T23:13:26.795Z,1.20
2023-05-20T23:15:54.224Z,0.90
2023-05-20T23:18:21.184Z,1.10
2023-05-20T23:20:47.797Z,1.23
2023-05-20T23:23:16.559Z,1.40
2023-05-20T23:25:45.870Z,1.15
2023-05-20T23:28:12.675Z,1.05
2023-05-20T23:30:39.591Z,0.93
2023-05-20T23:33:06.604Z,1.40
2023-05-20T23:35:33.517Z,1.02
2023-05-20T23:38:00.492Z,1.50
2023-05-20T23:40:28.528Z,1.23
2023-05-20T23:42:55.225Z,1.02
2023-05-20T23:45:21.843Z,1.52
2023-05-20T23:47:48.605Z,1.33
2023-05-20T23:50:15.700Z,1.50
2023-05-20T23:52:42.389Z,1.60
2023-05-20T23:55:10.379Z,1.40
2023-05-20T23:57:38.616Z,1.13
